| time (UTC) | temp F | wind direction | speed MPH | gust MPH | rain 1hr in | rain 24hr in | rain mn in | humidity % | barometer mb |
| 20260906103240 | 59 | 80 | 1.0 | 1.0 | 0.00 | 0.00 | 0.00 | 96 | 1017.3 |
| 20260906102736 | 60 | 82 | 0.0 | 1.0 | 0.00 | 0.00 | 0.00 | 96 | 1017.1 |
| 20260906102234 | 60 | 82 | 1.0 | 1.0 | 0.00 | 0.00 | 0.00 | 97 | 1016.9 |
| 20260906101730 | 60 | 83 | 1.0 | 2.0 | 0.00 | 0.00 | 0.00 | 97 | 1017.0 |
| 20260906101225 | 60 | 89 | 0.0 | 0.0 | 0.00 | 0.00 | 0.00 | 97 | 1016.8 |
| 20260906100721 | 60 | 90 | 1.0 | 1.0 | 0.00 | 0.00 | 0.00 | 97 | 1017.0 |
| 20260906100220 | 60 | 90 | 0.0 | 0.0 | 0.00 | 0.00 | 0.00 | 97 | 1016.9 |
| 20260906095721 | 60 | 89 | 0.0 | 0.0 | 0.00 | 0.00 | 0.00 | 97 | 1016.9 |
| 20260906095216 | 60 | 60 | 0.0 | 0.0 | 0.00 | 0.00 | 0.00 | 96 | 1016.8 |
| 20260906094714 | 60 | 79 | 0.0 | 0.0 | 0.00 | 0.00 | 0.00 | 96 | 1017.1 |
| 20260906094210 | 60 | 79 | 0.0 | 0.0 | 0.00 | 0.00 | 0.00 | 95 | 1016.9 |
| 20260906093707 | 60 | 79 | 0.0 | 0.0 | 0.00 | 0.00 | 0.00 | 95 | 1017.0 |
| 20260906093202 | 61 | 79 | 0.0 | 0.0 | 0.00 | 0.00 | 0.00 | 95 | 1017.0 |
| 20260906092657 | 61 | 79 | 0.0 | 0.0 | 0.00 | 0.00 | 0.00 | 96 | 1017.0 |
| 20260906092156 | 61 | 90 | 0.0 | 0.0 | 0.00 | 0.00 | 0.00 | 98 | 1017.0 |
| 20260906091653 | 60 | 90 | 1.0 | 1.0 | 0.00 | 0.00 | 0.00 | 99 | 1017.1 |
| 20260906091149 | 60 | 92 | 0.0 | 0.0 | 0.00 | 0.00 | 0.00 | 99 | 1017.0 |
| 20260906090645 | 60 | 93 | 0.0 | 0.0 | 0.00 | 0.00 | 0.00 | 99 | 1016.9 |
| 20260906090144 | 60 | 93 | 0.0 | 0.0 | 0.00 | 0.00 | 0.00 | 98 | 1016.9 |
| 20260906085643 | 60 | 93 | 0.0 | 1.0 | 0.00 | 0.00 | 0.00 | 98 | 1017.2 |
| 20260906085137 | 60 | 93 | 0.0 | 0.0 | 0.00 | 0.00 | 0.00 | 98 | 1017.0 |
| 20260906084632 | 60 | 93 | 0.0 | 0.0 | 0.00 | 0.00 | 0.00 | 98 | 1017.1 |
| 20260906084131 | 60 | 92 | 0.0 | 0.0 | 0.00 | 0.00 | 0.00 | 98 | 1017.1 |
| 20260906083627 | 60 | 93 | 0.0 | 0.0 | 0.00 | 0.00 | 0.00 | 99 | 1017.1 |
| 20260906083127 | 60 | 93 | 0.0 | 0.0 | 0.00 | 0.00 | 0.00 | 98 | 1016.9 |
| 20260906082623 | 60 | 93 | 0.0 | 0.0 | 0.00 | 0.00 | 0.00 | 98 | 1016.7 |
| 20260906082118 | 60 | 93 | 0.0 | 0.0 | 0.00 | 0.00 | 0.00 | 98 | 1017.0 |
| 20260906081614 | 60 | 93 | 0.0 | 0.0 | 0.00 | 0.00 | 0.00 | 98 | 1016.8 |
| 20260906081108 | 61 | 93 | 0.0 | 0.0 | 0.00 | 0.00 | 0.00 | 98 | 1016.7 |
| 20260906080605 | 61 | 93 | 0.0 | 0.0 | 0.00 | 0.00 | 0.00 | 98 | 1016.7 |
| 20260906075555 | 61 | 92 | 0.0 | 0.0 | 0.00 | 0.00 | 0.00 | 97 | 1016.7 |
| 20260906075050 | 61 | 93 | 0.0 | 0.0 | 0.00 | 0.00 | 0.00 | 96 | 1016.9 |
| 20260906074545 | 61 | 93 | 0.0 | 0.0 | 0.00 | 0.00 | 0.00 | 95 | 1016.7 |
| 20260906074043 | 62 | 93 | 0.0 | 0.0 | 0.00 | 0.00 | 0.00 | 95 | 1017.0 |
| 20260906073538 | 62 | 93 | 0.0 | 0.0 | 0.00 | 0.00 | 0.00 | 94 | 1017.2 |
| 20260906073035 | 62 | 93 | 0.0 | 0.0 | 0.00 | 0.00 | 0.00 | 95 | 1016.9 |
| 20260906072535 | 62 | 93 | 0.0 | 0.0 | 0.00 | 0.00 | 0.00 | 96 | 1017.0 |
| 20260906072031 | 62 | 93 | 0.0 | 0.0 | 0.00 | 0.00 | 0.00 | 94 | 1017.0 |
| 20260906071527 | 62 | 93 | 1.0 | 1.0 | 0.00 | 0.00 | 0.00 | 94 | 1017.0 |
| 20260906071022 | 62 | 93 | 0.0 | 0.0 | 0.00 | 0.00 | 0.00 | 93 | 1016.9 |
| 20260906070518 | 62 | 93 | 0.0 | 0.0 | 0.00 | 0.00 | 0.00 | 93 | 1016.7 |
| 20260906070014 | 63 | 93 | 0.0 | 0.0 | 0.00 | 0.00 | 0.00 | 92 | 1016.8 |
| 20260906065513 | 63 | 92 | 0.0 | 0.0 | 0.00 | 0.00 | 0.00 | 90 | 1016.7 |
| 20260906065009 | 63 | 93 | 0.0 | 0.0 | 0.00 | 0.00 | 0.00 | 89 | 1016.6 |
| 20260906064505 | 64 | 93 | 0.0 | 0.0 | 0.00 | 0.00 | 0.00 | 87 | 1017.0 |
| 20260906064000 | 64 | 92 | 1.0 | 1.0 | 0.00 | 0.00 | 0.00 | 86 | 1016.9 |
| 20260906063456 | 64 | 102 | 0.0 | 0.0 | 0.00 | 0.00 | 0.00 | 85 | 1016.8 |
| 20260906062955 | 65 | 77 | 1.0 | 1.0 | 0.00 | 0.00 | 0.00 | 85 | 1016.9 |
| 20260906062450 | 65 | 87 | 2.0 | 2.0 | 0.00 | 0.00 | 0.00 | 85 | 1016.8 |
| 20260906061945 | 65 | 74 | 0.0 | 0.0 | 0.00 | 0.00 | 0.00 | 85 | 1016.5 |
| 20260906061441 | 65 | 100 | 2.0 | 3.0 | 0.00 | 0.00 | 0.00 | 84 | 1016.7 |
| 20260906060936 | 65 | 79 | 1.0 | 1.0 | 0.00 | 0.00 | 0.00 | 85 | 1016.6 |
| 20260906060433 | 65 | 79 | 1.0 | 2.0 | 0.00 | 0.00 | 0.00 | 84 | 1016.9 |
| 20260906055929 | 66 | 80 | 1.0 | 1.0 | 0.00 | 0.00 | 0.00 | 85 | 1016.7 |
| 20260906055425 | 66 | 85 | 0.0 | 1.0 | 0.00 | 0.00 | 0.00 | 84 | 1016.5 |
| 20260906054920 | 66 | 82 | 0.0 | 0.0 | 0.00 | 0.00 | 0.00 | 84 | 1016.7 |
| 20260906054414 | 66 | 93 | 1.0 | 1.0 | 0.00 | 0.00 | 0.00 | 85 | 1016.6 |
| 20260906053911 | 66 | 92 | 3.0 | 4.0 | 0.00 | 0.00 | 0.00 | 85 | 1016.3 |
| 20260906053406 | 67 | 101 | 1.0 | 1.0 | 0.00 | 0.00 | 0.00 | 86 | 1016.5 |
| 20260906052902 | 67 | 74 | 1.0 | 1.0 | 0.00 | 0.00 | 0.00 | 87 | 1016.4 |
| 20260906052358 | 67 | 104 | 4.0 | 4.0 | 0.00 | 0.00 | 0.00 | 87 | 1016.5 |
| 20260906051855 | 67 | 73 | 2.0 | 2.0 | 0.00 | 0.00 | 0.00 | 88 | 1016.6 |
| 20260906051354 | 68 | 69 | 4.0 | 6.0 | 0.00 | 0.00 | 0.00 | 88 | 1016.4 |
| 20260906050850 | 68 | 97 | 4.0 | 4.0 | 0.00 | 0.00 | 0.00 | 88 | 1016.4 |
| 20260906050345 | 68 | 77 | 1.0 | 1.0 | 0.00 | 0.00 | 0.00 | 89 | 1016.4 |
| 20260906045844 | 68 | 81 | 2.0 | 2.0 | 0.00 | 0.00 | 0.00 | 91 | 1016.2 |
| 20260906045338 | 68 | 94 | 1.0 | 1.0 | 0.00 | 0.00 | 0.00 | 94 | 1016.3 |
| 20260906044835 | 68 | 63 | 0.0 | 1.0 | 0.00 | 0.00 | 0.00 | 96 | 1016.3 |
| 20260906044335 | 68 | 89 | 0.0 | 1.0 | 0.00 | 0.00 | 0.00 | 96 | 1016.2 |
| 20260906043830 | 68 | 102 | 2.0 | 3.0 | 0.00 | 0.00 | 0.00 | 96 | 1016.2 |
| 20260906043326 | 68 | 90 | 1.0 | 1.0 | 0.00 | 0.00 | 0.00 | 97 | 1016.1 |
| 20260906042827 | 68 | 90 | 0.0 | 0.0 | 0.00 | 0.00 | 0.00 | 97 | 1016.1 |
| 20260906042325 | 68 | 88 | 0.0 | 0.0 | 0.00 | 0.00 | 0.00 | 97 | 1016.1 |
| 20260906041821 | 68 | 88 | 0.0 | 0.0 | 0.00 | 0.00 | 0.00 | 97 | 1016.0 |
| 20260906041317 | 68 | 85 | 0.0 | 0.0 | 0.00 | 0.00 | 0.00 | 97 | 1015.9 |
| 20260906040811 | 68 | 85 | 0.0 | 0.0 | 0.00 | 0.00 | 0.00 | 97 | 1015.8 |
| 20260906040307 | 68 | 85 | 1.0 | 1.0 | 0.00 | 0.00 | 0.00 | 97 | 1016.1 |
| 20260906035802 | 68 | 86 | 0.0 | 0.0 | 0.00 | 0.00 | 0.00 | 96 | 1016.0 |
| 20260906035257 | 68 | 86 | 0.0 | 0.0 | 0.00 | 0.00 | 0.00 | 96 | 1015.8 |
| 20260906034757 | 68 | 86 | 0.0 | 0.0 | 0.00 | 0.00 | 0.00 | 96 | 1015.8 |
| 20260906034258 | 69 | 86 | 0.0 | 0.0 | 0.00 | 0.00 | 0.00 | 95 | 1015.9 |
| 20260906033754 | 69 | 87 | 1.0 | 1.0 | 0.00 | 0.00 | 0.00 | 95 | 1015.7 |
| 20260906033253 | 69 | 84 | 0.0 | 0.0 | 0.00 | 0.00 | 0.00 | 95 | 1015.8 |
| 20260906032749 | 69 | 84 | 0.0 | 0.0 | 0.00 | 0.00 | 0.00 | 95 | 1015.5 |
| 20260906032250 | 69 | 87 | 0.0 | 0.0 | 0.00 | 0.00 | 0.00 | 95 | 1015.6 |
| 20260906031745 | 69 | 87 | 0.0 | 0.0 | 0.00 | 0.00 | 0.00 | 95 | 1015.7 |
| 20260906031241 | 69 | 85 | 1.0 | 1.0 | 0.00 | 0.00 | 0.00 | 95 | 1015.7 |
| 20260906030740 | 69 | 88 | 0.0 | 0.0 | 0.00 | 0.00 | 0.00 | 95 | 1015.7 |
| 20260906030236 | 69 | 46 | 0.0 | 0.0 | 0.00 | 0.00 | 0.00 | 95 | 1015.5 |
| 20260906025735 | 69 | 46 | 0.0 | 0.0 | 0.00 | 0.00 | 0.00 | 95 | 1015.8 |
| 20260906025235 | 69 | 44 | 0.0 | 0.0 | 0.00 | 0.00 | 0.00 | 95 | 1015.7 |
| 20260906024734 | 69 | 44 | 0.0 | 0.0 | 0.00 | 0.00 | 0.00 | 95 | 1015.6 |
| 20260906024233 | 69 | 44 | 0.0 | 0.0 | 0.00 | 0.00 | 0.00 | 94 | 1015.6 |
| 20260906023729 | 70 | 77 | 0.0 | 0.0 | 0.00 | 0.00 | 0.00 | 94 | 1015.8 |
| 20260906023225 | 70 | 77 | 0.0 | 0.0 | 0.00 | 0.00 | 0.00 | 93 | 1015.6 |
| 20260906022720 | 70 | 77 | 0.0 | 0.0 | 0.00 | 0.00 | 0.00 | 93 | 1015.6 |
| 20260906022215 | 70 | 77 | 0.0 | 0.0 | 0.00 | 0.00 | 0.00 | 93 | 1015.7 |
| 20260906021712 | 70 | 77 | 1.0 | 1.0 | 0.00 | 0.00 | 0.00 | 93 | 1015.4 |
| 20260906021210 | 70 | 77 | 0.0 | 0.0 | 0.00 | 0.00 | 0.00 | 93 | 1015.5 |
| 20260906020705 | 70 | 77 | 0.0 | 0.0 | 0.00 | 0.00 | 0.00 | 93 | 1015.6 |
| 20260906020159 | 70 | 77 | 0.0 | 0.0 | 0.00 | 0.00 | 0.00 | 92 | 1015.4 |
| 20260906015654 | 70 | 77 | 1.0 | 1.0 | 0.00 | 0.00 | 0.00 | 92 | 1015.3 |
| 20260906015153 | 70 | 77 | 1.0 | 1.0 | 0.00 | 0.00 | 0.00 | 91 | 1015.3 |
| 20260906014652 | 70 | 77 | 0.0 | 0.0 | 0.00 | 0.00 | 0.00 | 91 | 1015.2 |
| 20260906014149 | 71 | 77 | 0.0 | 0.0 | 0.00 | 0.00 | 0.00 | 90 | 1015.1 |
| 20260906013644 | 71 | 92 | 0.0 | 0.0 | 0.00 | 0.00 | 0.00 | 90 | 1015.1 |
| 20260906013140 | 71 | 98 | 0.0 | 0.0 | 0.00 | 0.00 | 0.00 | 90 | 1015.0 |
| 20260906012640 | 71 | 22 | 2.0 | 2.0 | 0.00 | 0.00 | 0.00 | 89 | 1014.9 |
| 20260906012140 | 71 | 84 | 0.0 | 0.0 | 0.00 | 0.00 | 0.00 | 90 | 1014.9 |
| 20260906011636 | 71 | 93 | 1.0 | 1.0 | 0.00 | 0.00 | 0.00 | 90 | 1014.9 |
| 20260906011130 | 71 | 80 | 0.0 | 0.0 | 0.00 | 0.00 | 0.00 | 90 | 1014.8 |
| 20260906010626 | 70 | 80 | 2.0 | 2.0 | 0.00 | 0.00 | 0.00 | 91 | 1014.8 |
| 20260906010122 | 70 | 88 | 0.0 | 0.0 | 0.00 | 0.00 | 0.00 | 91 | 1014.9 |
| 20260906005621 | 71 | 60 | 2.0 | 3.0 | 0.00 | 0.00 | 0.00 | 90 | 1014.8 |
| 20260906005121 | 71 | 77 | 0.0 | 0.0 | 0.00 | 0.00 | 0.00 | 90 | 1014.8 |
| 20260906004620 | 71 | 75 | 1.0 | 1.0 | 0.00 | 0.00 | 0.00 | 89 | 1014.6 |
| 20260906004115 | 71 | 88 | 1.0 | 1.0 | 0.00 | 0.00 | 0.00 | 89 | 1014.6 |
| 20260906003611 | 71 | 89 | 0.0 | 0.0 | 0.00 | 0.00 | 0.00 | 88 | 1014.6 |
| 20260906003107 | 71 | 70 | 2.0 | 2.0 | 0.00 | 0.00 | 0.00 | 88 | 1014.7 |
| 20260906002607 | 71 | 87 | 2.0 | 2.0 | 0.00 | 0.00 | 0.00 | 88 | 1014.9 |
| 20260906002102 | 71 | 98 | 0.0 | 0.0 | 0.00 | 0.00 | 0.00 | 88 | 1014.5 |
| 20260906001557 | 71 | 92 | 1.0 | 1.0 | 0.00 | 0.00 | 0.00 | 88 | 1014.7 |
| 20260906001057 | 72 | 76 | 2.0 | 2.0 | 0.00 | 0.00 | 0.00 | 88 | 1014.6 |
| 20260906000553 | 72 | 101 | 1.0 | 1.0 | 0.00 | 0.00 | 0.00 | 87 | 1014.7 |
| 20260906000048 | 72 | 86 | 1.0 | 1.0 | 0.00 | 0.00 | 0.00 | 87 | 1014.7 |
| 20260905235547 | 72 | 84 | 1.0 | 1.0 | 0.00 | 0.00 | 0.00 | 86 | 1014.7 |
| 20260905235042 | 72 | 101 | 1.0 | 2.0 | 0.00 | 0.00 | 0.00 | 86 | 1014.8 |
| 20260905234538 | 72 | 82 | 1.0 | 1.0 | 0.00 | 0.00 | 0.00 | 85 | 1014.8 |
| 20260905234032 | 72 | 71 | 1.0 | 1.0 | 0.00 | 0.00 | 0.00 | 85 | 1014.9 |
| 20260905233527 | 72 | 80 | 0.0 | 0.0 | 0.00 | 0.00 | 0.00 | 84 | 1014.6 |
| 20260905233027 | 72 | 63 | 3.0 | 4.0 | 0.00 | 0.00 | 0.00 | 84 | 1014.5 |
| 20260905232522 | 73 | 59 | 2.0 | 3.0 | 0.00 | 0.00 | 0.00 | 83 | 1014.5 |
| 20260905232018 | 73 | 85 | 1.0 | 1.0 | 0.00 | 0.00 | 0.00 | 84 | 1014.6 |
| 20260905231513 | 73 | 48 | 4.0 | 6.0 | 0.00 | 0.00 | 0.00 | 84 | 1014.6 |
| 20260905231010 | 72 | 98 | 0.0 | 1.0 | 0.00 | 0.00 | 0.00 | 84 | 1014.5 |
| 20260905230508 | 72 | 90 | 1.0 | 2.0 | 0.00 | 0.00 | 0.00 | 86 | 1014.6 |
| 20260905230007 | 72 | 85 | 0.0 | 1.0 | 0.00 | 0.00 | 0.00 | 88 | 1014.4 |
| 20260905225501 | 72 | 29 | 2.0 | 2.0 | 0.00 | 0.00 | 0.00 | 87 | 1014.5 |
| 20260905224956 | 72 | 72 | 4.0 | 4.0 | 0.00 | 0.00 | 0.00 | 87 | 1014.6 |
| 20260905224452 | 73 | 90 | 1.0 | 1.0 | 0.00 | 0.00 | 0.00 | 88 | 1014.4 |
| 20260905223951 | 73 | 81 | 1.0 | 1.0 | 0.00 | 0.00 | 0.00 | 88 | 1014.2 |
| 20260905223449 | 73 | 77 | 2.0 | 3.0 | 0.00 | 0.00 | 0.00 | 87 | 1014.2 |
| 20260905222944 | 73 | 82 | 1.0 | 1.0 | 0.00 | 0.00 | 0.00 | 88 | 1014.2 |
| 20260905222443 | 73 | 63 | 2.0 | 2.0 | 0.00 | 0.00 | 0.00 | 87 | 1014.0 |
| 20260905221939 | 73 | 95 | 1.0 | 1.0 | 0.00 | 0.00 | 0.00 | 88 | 1014.0 |
| 20260905221436 | 73 | 65 | 3.0 | 3.0 | 0.00 | 0.00 | 0.00 | 88 | 1014.1 |
| 20260905220932 | 74 | 80 | 0.0 | 1.0 | 0.00 | 0.00 | 0.00 | 88 | 1013.9 |
| 20260905220427 | 74 | 92 | 2.0 | 4.0 | 0.00 | 0.00 | 0.00 | 87 | 1013.9 |
| 20260905215926 | 74 | 30 | 3.0 | 4.0 | 0.00 | 0.00 | 0.00 | 87 | 1014.0 |
| 20260905215422 | 74 | 80 | 0.0 | 1.0 | 0.00 | 0.00 | 0.00 | 87 | 1013.7 |
| 20260905214918 | 75 | 80 | 3.0 | 6.0 | 0.00 | 0.00 | 0.00 | 86 | 1013.6 |
| 20260905214414 | 75 | 138 | 2.0 | 3.0 | 0.00 | 0.00 | 0.00 | 85 | 1013.6 |
| 20260905213914 | 75 | 84 | 4.0 | 4.0 | 0.00 | 0.00 | 0.00 | 85 | 1013.6 |
| 20260905213410 | 75 | 81 | 2.0 | 3.0 | 0.00 | 0.00 | 0.00 | 85 | 1013.4 |
| 20260905212905 | 76 | 114 | 2.0 | 4.0 | 0.00 | 0.00 | 0.00 | 84 | 1013.4 |
| 20260905212401 | 77 | 95 | 2.0 | 3.0 | 0.00 | 0.00 | 0.00 | 83 | 1013.3 |
| 20260905211859 | 77 | 78 | 1.0 | 1.0 | 0.00 | 0.00 | 0.00 | 82 | 1013.3 |
| 20260905211355 | 77 | 108 | 2.0 | 2.0 | 0.00 | 0.00 | 0.00 | 82 | 1013.2 |
| 20260905210851 | 77 | 77 | 4.0 | 6.0 | 0.00 | 0.00 | 0.00 | 82 | 1013.3 |
| 20260905210351 | 77 | 53 | 6.0 | 8.0 | 0.00 | 0.00 | 0.00 | 81 | 1013.3 |
| 20260905205850 | 77 | 92 | 2.0 | 3.0 | 0.00 | 0.00 | 0.00 | 82 | 1013.4 |
| 20260905205345 | 77 | 97 | 3.0 | 4.0 | 0.00 | 0.00 | 0.00 | 81 | 1013.6 |
| 20260905204844 | 78 | 31 | 3.0 | 3.0 | 0.00 | 0.00 | 0.00 | 81 | 1013.4 |
| 20260905204341 | 78 | 95 | 2.0 | 2.0 | 0.00 | 0.00 | 0.00 | 80 | 1013.4 |
| 20260905203839 | 78 | 115 | 2.0 | 2.0 | 0.00 | 0.00 | 0.00 | 81 | 1013.4 |
| 20260905203335 | 77 | 84 | 2.0 | 2.0 | 0.00 | 0.00 | 0.00 | 81 | 1013.5 |
| 20260905202831 | 77 | 331 | 3.0 | 4.0 | 0.00 | 0.00 | 0.00 | 82 | 1013.5 |
| 20260905202325 | 77 | 83 | 1.0 | 1.0 | 0.00 | 0.00 | 0.00 | 82 | 1013.7 |
| 20260905201821 | 77 | 93 | 2.0 | 2.0 | 0.00 | 0.00 | 0.00 | 81 | 1013.6 |
| 20260905201317 | 78 | 58 | 3.0 | 3.0 | 0.00 | 0.00 | 0.00 | 80 | 1013.5 |
| 20260905200816 | 78 | 104 | 1.0 | 1.0 | 0.00 | 0.00 | 0.00 | 81 | 1013.6 |
| 20260905200313 | 78 | 86 | 1.0 | 1.0 | 0.00 | 0.00 | 0.00 | 81 | 1013.7 |
| 20260905195810 | 77 | 93 | 0.0 | 0.0 | 0.00 | 0.00 | 0.00 | 80 | 1013.7 |
| 20260905195307 | 78 | 76 | 2.0 | 2.0 | 0.00 | 0.00 | 0.00 | 80 | 1013.6 |
| 20260905194801 | 77 | 86 | 0.0 | 0.0 | 0.00 | 0.00 | 0.00 | 81 | 1013.7 |
| 20260905194301 | 78 | 70 | 1.0 | 1.0 | 0.00 | 0.00 | 0.00 | 80 | 1013.7 |
| 20260905193800 | 78 | 44 | 2.0 | 2.0 | 0.00 | 0.00 | 0.00 | 81 | 1013.7 |
| 20260905193255 | 78 | 44 | 1.0 | 1.0 | 0.00 | 0.00 | 0.00 | 80 | 1013.9 |
| 20260905192750 | 77 | 44 | 0.0 | 0.0 | 0.00 | 0.00 | 0.00 | 81 | 1013.7 |
| 20260905192247 | 77 | 43 | 1.0 | 1.0 | 0.00 | 0.00 | 0.00 | 81 | 1013.7 |
| 20260905191746 | 77 | 47 | 1.0 | 1.0 | 0.00 | 0.00 | 0.00 | 80 | 1014.0 |
| 20260905191244 | 77 | 47 | 0.0 | 0.0 | 0.00 | 0.00 | 0.00 | 80 | 1014.0 |
| 20260905190743 | 77 | 45 | 1.0 | 1.0 | 0.00 | 0.00 | 0.00 | 80 | 1013.7 |
| 20260905190242 | 77 | 60 | 2.0 | 2.0 | 0.00 | 0.00 | 0.00 | 80 | 1014.0 |
| 20260905185736 | 78 | 63 | 1.0 | 1.0 | 0.00 | 0.91 | 0.91 | 79 | 1014.0 |
| 20260905185231 | 78 | 29 | 2.0 | 2.0 | 0.00 | 0.91 | 0.91 | 78 | 1014.1 |
| 20260905184731 | 78 | 57 | 1.0 | 1.0 | 0.00 | 0.91 | 0.91 | 81 | 1014.1 |
| 20260905184230 | 78 | 92 | 0.0 | 1.0 | 0.00 | 0.91 | 0.91 | 78 | 1014.0 |
| 20260905183729 | 79 | 159 | 1.0 | 1.0 | 0.00 | 0.91 | 0.91 | 77 | 1014.0 |
| 20260905183225 | 78 | 67 | 2.0 | 1.0 | 0.00 | 0.91 | 0.91 | 79 | 1014.0 |
| 20260905182725 | 78 | 86 | 1.0 | 1.0 | 0.00 | 0.91 | 0.91 | 81 | 1014.1 |
| 20260905182224 | 78 | 89 | 0.0 | 0.0 | 0.00 | 0.91 | 0.91 | 80 | 1014.0 |
| 20260905181720 | 79 | 87 | 1.0 | 1.0 | 0.00 | 0.91 | 0.91 | 78 | 1013.9 |
| 20260905181218 | 79 | 66 | 1.0 | 1.0 | 0.00 | 0.91 | 0.91 | 77 | 1014.2 |
| 20260905180713 | 78 | 95 | 2.0 | 2.0 | 0.00 | 0.91 | 0.91 | 78 | 1014.3 |
| 20260905180209 | 79 | 82 | 1.0 | 2.0 | 0.00 | 0.91 | 0.91 | 78 | 1014.1 |
| 20260905175708 | 79 | 117 | 1.0 | 1.0 | 0.00 | 0.91 | 0.91 | 79 | 1013.9 |
| 20260905175203 | 78 | 52 | 3.0 | 4.0 | 0.00 | 0.91 | 0.91 | 80 | 1013.9 |
| 20260905174659 | 78 | 91 | 2.0 | 2.0 | 0.00 | 0.91 | 0.91 | 79 | 1014.2 |
| 20260905174154 | 79 | 98 | 2.0 | 2.0 | 0.00 | 0.91 | 0.91 | 77 | 1014.2 |
| 20260905173650 | 78 | 91 | 1.0 | 2.0 | 0.00 | 0.91 | 0.91 | 78 | 1014.0 |
| 20260905173146 | 78 | 82 | 1.0 | 0.0 | 0.00 | 0.91 | 0.91 | 79 | 1014.1 |
| 20260905172645 | 78 | 83 | 1.0 | 2.0 | 0.00 | 0.91 | 0.91 | 79 | 1014.2 |
| 20260905172139 | 79 | 100 | 0.0 | 0.0 | 0.00 | 0.91 | 0.91 | 78 | 1014.3 |
| 20260905171636 | 79 | 88 | 1.0 | 2.0 | 0.00 | 0.91 | 0.91 | 79 | 1014.2 |
| 20260905171131 | 78 | 112 | 1.0 | 1.0 | 0.00 | 0.91 | 0.91 | 79 | 1014.3 |
| 20260905170628 | 79 | 108 | 5.0 | 4.0 | 0.00 | 0.91 | 0.91 | 76 | 1014.4 |
| 20260905170123 | 79 | 109 | 2.0 | 2.0 | 0.00 | 0.91 | 0.91 | 76 | 1014.4 |
| 20260905165617 | 78 | 105 | 1.0 | 2.0 | 0.00 | 0.91 | 0.91 | 80 | 1014.3 |
| 20260905165113 | 79 | 73 | 2.0 | 3.0 | 0.00 | 0.91 | 0.91 | 77 | 1014.4 |
| 20260905164608 | 78 | 67 | 1.0 | 1.0 | 0.00 | 0.91 | 0.91 | 79 | 1014.3 |
| 20260905164107 | 79 | 66 | 2.0 | 2.0 | 0.00 | 0.91 | 0.91 | 76 | 1014.2 |
| 20260905163603 | 78 | 113 | 1.0 | 1.0 | 0.00 | 0.91 | 0.91 | 78 | 1014.5 |
| 20260905163100 | 77 | 112 | 2.0 | 3.0 | 0.00 | 0.91 | 0.91 | 80 | 1014.4 |
| 20260905162555 | 77 | 61 | 3.0 | 3.0 | 0.00 | 0.91 | 0.91 | 80 | 1014.4 |
| 20260905162054 | 77 | 98 | 2.0 | 2.0 | 0.00 | 0.91 | 0.91 | 80 | 1014.4 |
| 20260905161549 | 76 | 86 | 1.0 | 2.0 | 0.00 | 0.91 | 0.91 | 83 | 1014.5 |
| 20260905161047 | 77 | 144 | 3.0 | 4.0 | 0.00 | 0.91 | 0.91 | 81 | 1014.5 |
| 20260905160545 | 79 | 100 | 0.0 | 1.0 | 0.00 | 0.91 | 0.91 | 78 | 1014.4 |
| 20260905160046 | 80 | 60 | 0.0 | 0.0 | 0.00 | 0.91 | 0.91 | 74 | 1014.5 |
| 20260905155545 | 80 | 43 | 2.0 | 2.0 | 0.00 | 0.91 | 0.91 | 74 | 1014.3 |
| 20260905155044 | 80 | 108 | 2.0 | 2.0 | 0.00 | 0.91 | 0.91 | 76 | 1014.3 |
| 20260905154539 | 79 | 104 | 2.0 | 2.0 | 0.00 | 0.91 | 0.91 | 77 | 1014.3 |
| 20260905154035 | 78 | 18 | 0.0 | 0.0 | 0.00 | 0.91 | 0.91 | 78 | 1014.3 |
| 20260905153531 | 78 | 39 | 2.0 | 2.0 | 0.00 | 0.91 | 0.91 | 79 | 1014.3 |
| 20260905153030 | 77 | 143 | 1.0 | 1.0 | 0.00 | 0.91 | 0.91 | 79 | 1014.3 |
| 20260905152525 | 77 | 35 | 2.0 | 3.0 | 0.00 | 0.91 | 0.91 | 78 | 1014.4 |
| 20260905152020 | 77 | 76 | 1.0 | 1.0 | 0.00 | 0.91 | 0.91 | 81 | 1014.5 |
| 20260905151516 | 77 | 86 | 0.0 | 0.0 | 0.00 | 0.91 | 0.91 | 81 | 1014.3 |
| 20260905151011 | 77 | 86 | 1.0 | 1.0 | 0.00 | 0.91 | 0.91 | 80 | 1014.3 |
| 20260905150506 | 76 | 107 | 0.0 | 0.0 | 0.00 | 0.91 | 0.91 | 80 | 1014.3 |
| 20260905150003 | 76 | 84 | 0.0 | 0.0 | 0.00 | 0.91 | 0.91 | 82 | 1014.4 |
| 20260905145457 | 76 | 120 | 2.0 | 2.0 | 0.00 | 0.91 | 0.91 | 81 | 1014.2 |
| 20260905144956 | 75 | 80 | 1.0 | 1.0 | 0.00 | 0.91 | 0.91 | 83 | 1014.4 |
| 20260905144452 | 76 | 111 | 0.0 | 0.0 | 0.00 | 0.91 | 0.91 | 83 | 1014.4 |
| 20260905143951 | 77 | 111 | 0.0 | 0.0 | 0.00 | 0.91 | 0.91 | 82 | 1014.3 |
| 20260905143450 | 76 | 111 | 0.0 | 0.0 | 0.00 | 0.91 | 0.91 | 84 | 1014.2 |
| 20260905142945 | 75 | 105 | 1.0 | 1.0 | 0.00 | 0.91 | 0.91 | 85 | 1014.1 |
| 20260905142443 | 75 | 105 | 1.0 | 1.0 | 0.00 | 0.91 | 0.91 | 85 | 1014.2 |
| 20260905141939 | 73 | 138 | 1.0 | 1.0 | 0.00 | 0.91 | 0.91 | 88 | 1014.2 |
| 20260905141434 | 73 | 137 | 0.0 | 0.0 | 0.00 | 0.91 | 0.91 | 89 | 1014.2 |
| 20260905140930 | 72 | 137 | 0.0 | 0.0 | 0.00 | 0.91 | 0.91 | 91 | 1014.1 |
| 20260905140425 | 72 | 136 | 1.0 | 1.0 | 0.00 | 0.91 | 0.91 | 90 | 1014.1 |
| 20260905135924 | 71 | 30 | 0.0 | 0.0 | 0.00 | 0.91 | 0.91 | 92 | 1014.0 |
| 20260905135420 | 71 | 30 | 1.0 | 1.0 | 0.00 | 0.91 | 0.91 | 93 | 1014.1 |
| 20260905134915 | 70 | 79 | 1.0 | 1.0 | 0.00 | 0.91 | 0.91 | 95 | 1014.0 |
| 20260905134414 | 70 | 78 | 1.0 | 1.0 | 0.00 | 0.91 | 0.91 | 95 | 1014.0 |
| 20260905133909 | 70 | 72 | 3.0 | 3.0 | 0.00 | 0.91 | 0.91 | 94 | 1013.6 |
| 20260905133403 | 70 | 43 | 2.0 | 2.0 | 0.00 | 0.91 | 0.91 | 95 | 1014.0 |
| 20260905132903 | 70 | 76 | 1.0 | 1.0 | 0.00 | 0.91 | 0.91 | 95 | 1014.0 |
| 20260905132359 | 70 | 71 | 0.0 | 0.0 | 0.00 | 0.91 | 0.91 | 95 | 1014.0 |
| 20260905131858 | 70 | 70 | 0.0 | 0.0 | 0.00 | 0.91 | 0.91 | 95 | 1014.1 |
| 20260905131354 | 70 | 71 | 1.0 | 1.0 | 0.00 | 0.91 | 0.91 | 96 | 1014.0 |
| 20260905130849 | 70 | 80 | 0.0 | 0.0 | 0.00 | 0.91 | 0.91 | 96 | 1013.7 |
| 20260905130348 | 70 | 77 | 1.0 | 1.0 | 0.00 | 0.91 | 0.91 | 96 | 1014.0 |
| 20260905125843 | 70 | 76 | 1.0 | 1.0 | 0.00 | 0.91 | 0.91 | 96 | 1013.7 |
| 20260905125338 | 70 | 104 | 2.0 | 2.0 | 0.00 | 0.91 | 0.91 | 97 | 1013.6 |
| 20260905124834 | 69 | 107 | 1.0 | 1.0 | 0.00 | 0.91 | 0.91 | 96 | 1013.7 |
| 20260905124330 | 70 | 80 | 2.0 | 1.0 | 0.00 | 0.91 | 0.91 | 95 | 1013.6 |
| 20260905123830 | 69 | 116 | 1.0 | 1.0 | 0.00 | 0.91 | 0.91 | 97 | 1013.6 |
| 20260905123327 | 69 | 103 | 0.0 | 0.0 | 0.00 | 0.91 | 0.91 | 98 | 1013.7 |
| 20260905122827 | 69 | 104 | 1.0 | 1.0 | 0.00 | 0.91 | 0.91 | 97 | 1013.5 |
| 20260905122326 | 70 | 82 | 0.0 | 0.0 | 0.00 | 0.91 | 0.91 | 96 | 1013.4 |
| 20260905121821 | 70 | 73 | 2.0 | 2.0 | 0.00 | 0.91 | 0.91 | 97 | 1013.4 |
| 20260905121318 | 70 | 90 | 2.0 | 2.0 | 0.00 | 0.91 | 0.91 | 97 | 1013.1 |
| 20260905120816 | 69 | 100 | 0.0 | 0.0 | 0.00 | 0.91 | 0.91 | 99 | 1013.4 |
| 20260905120311 | 69 | 100 | 0.0 | 0.0 | 0.00 | 0.91 | 0.91 | 99 | 1013.1 |
| 20260905115806 | 68 | 100 | 0.0 | 0.0 | 0.00 | 0.91 | 0.91 | 99 | 1013.2 |
| 20260905115306 | 68 | 100 | 1.0 | 1.0 | 0.00 | 0.91 | 0.91 | 99 | 1012.8 |
| 20260905114806 | 68 | 100 | 1.0 | 1.0 | 0.00 | 0.91 | 0.91 | 99 | 1012.7 |
| 20260905114305 | 67 | 100 | 0.0 | 0.0 | 0.00 | 0.91 | 0.91 | 99 | 1012.8 |
| 20260905113804 | 67 | 100 | 0.0 | 0.0 | 0.00 | 0.91 | 0.91 | 99 | 1012.8 |
| 20260905113300 | 67 | 100 | 0.0 | 0.0 | 0.00 | 0.91 | 0.91 | 99 | 1012.8 |
| 20260905112755 | 67 | 101 | 1.0 | 1.0 | 0.00 | 0.91 | 0.91 | 99 | 1012.7 |
| 20260905112250 | 67 | 101 | 1.0 | 1.0 | 0.00 | 0.91 | 0.91 | 99 | 1012.5 |
| 20260905111745 | 67 | 100 | 0.0 | 0.0 | 0.00 | 0.91 | 0.91 | 99 | 1012.4 |
| 20260905111245 | 67 | 100 | 0.0 | 0.0 | 0.00 | 0.91 | 0.91 | 99 | 1012.4 |
| 20260905110745 | 67 | 100 | 0.0 | 0.0 | 0.00 | 0.91 | 0.91 | 99 | 1012.4 |
| 20260905110244 | 67 | 100 | 0.0 | 0.0 | 0.00 | 0.91 | 0.91 | 99 | 1012.4 |
| 20260905105740 | 67 | 100 | 1.0 | 1.0 | 0.00 | 0.91 | 0.91 | 99 | 1012.3 |
| 20260905105239 | 68 | 100 | 1.0 | 1.0 | 0.00 | 0.91 | 0.91 | 99 | 1012.3 |
| 20260905104734 | 68 | 100 | 0.0 | 0.0 | 0.00 | 0.91 | 0.91 | 99 | 1012.1 |
| 20260905104230 | 68 | 100 | 0.0 | 0.0 | 0.00 | 0.91 | 0.91 | 99 | 1012.2 |
| 20260905103724 | 68 | 100 | 0.0 | 0.0 | 0.00 | 0.91 | 0.91 | 99 | 1012.3 |